DW8618 Nerja ES current weather conditions

sailwx.info

Wind from 284 at 0 knots gusting 6

Air temperature 15.6° C
Dewpoint 10.3° C

Last reported at 2016-Feb-12 02:45 UTC.
Time now 2016-Feb-12 03:35 UTC

Location: N 36°46' W 003°52'.
View on Google Maps.

See reports from other nearby stations

  
Tides and Currents Weather Stations Pressure Air Temp Water Temp Dewpoint Dewpoint Depression Visibility Wind Speed Wind Dir Waves Ship Positions
date/time (UTC)wind fromknots sea level pressurealtimeterstation pressurevisibilityair tempwater tempwave heightnotes
2016-Feb-12 02:45 284 0 gusting 6 15.6
2016-Feb-12 02:30 322 1 gusting 6 16.1
2016-Feb-12 02:15 355 16.1
2016-Feb-12 02:01 252 1 gusting 8 16.1
2016-Feb-12 01:45 266 1 gusting 8 16.1
2016-Feb-12 01:30 298 3 gusting 11 16.1
2016-Feb-12 01:15 279 0 gusting 11 16.1
2016-Feb-12 01:01 287 5 gusting 11 16.7
2016-Feb-12 00:45 298 4 gusting 16 16.7
2016-Feb-12 00:30 245 5 gusting 13 16.7
2016-Feb-12 00:15 294 1 gusting 8 15.6
2016-Feb-12 00:01 275 0 gusting 5 15.6
2016-Feb-11 23:45 255 4 gusting 9 15.6
2016-Feb-11 23:30 288 5 gusting 11 15.6
2016-Feb-11 23:15 281 15.6
2016-Feb-11 23:01 275 15.6
2016-Feb-11 22:45 266 2 gusting 10 15.0
2016-Feb-11 22:30 240 2 gusting 8 15.0
2016-Feb-11 22:15 240 15.6
2016-Feb-11 22:01 246 2 gusting 13 15.6
2016-Feb-11 21:45 254 1 gusting 13 15.6
2016-Feb-11 21:30 240 3 gusting 9 15.6
2016-Feb-11 21:15 261 3 gusting 14 16.1
2016-Feb-11 21:01 274 3 gusting 9 16.7
2016-Feb-11 20:45 240 1 gusting 6 17.2
2016-Feb-11 20:30 253 1 gusting 9 17.2
2016-Feb-11 20:15 238 6 gusting 15 17.2
2016-Feb-11 20:01 294 7 gusting 13 17.2
2016-Feb-11 19:45 269 9 gusting 14 17.2
2016-Feb-11 19:30 276 5 gusting 14 17.2
2016-Feb-11 19:15 267 6 gusting 16 17.2
2016-Feb-11 19:01 255 4 gusting 13 17.2
2016-Feb-11 18:45 211 4 gusting 14 17.8
2016-Feb-11 18:30 244 6 gusting 13 18.3
2016-Feb-11 18:15 238 5 gusting 14 19.4
2016-Feb-11 18:01 255 5 gusting 12 19.4
2016-Feb-11 17:45 296 5 gusting 17 19.4
2016-Feb-11 17:30 285 6 gusting 13 19.4
2016-Feb-11 17:15 238 2 gusting 12 19.4
2016-Feb-11 17:01 272 5 gusting 13 20.0
2016-Feb-11 16:45 254 6 gusting 19 20.0
2016-Feb-11 16:30 267 6 gusting 19 20.6
2016-Feb-11 16:15 286 11 gusting 23 20.6
2016-Feb-11 16:01 252 5 gusting 11 21.1
2016-Feb-11 15:45 290 6 gusting 14 21.1
2016-Feb-11 15:30 292 6 gusting 16 21.7
2016-Feb-11 15:15 295 8 gusting 19 21.7
2016-Feb-11 15:01 285 8 gusting 23 21.1
2016-Feb-11 14:45 298 6 gusting 19 22.2
2016-Feb-11 14:30 290 10 gusting 18 22.2
2016-Feb-11 14:15 240 7 gusting 19 21.7
2016-Feb-11 14:01 169 6 gusting 15 21.7
2016-Feb-11 13:45 220 10 gusting 19 21.7
2016-Feb-11 13:30 267 11 gusting 26 21.7
2016-Feb-11 13:15 290 13 gusting 19 21.7
2016-Feb-11 13:01 285 7 gusting 19 21.1
2016-Feb-11 12:45 327 12 gusting 26 20.6
2016-Feb-11 12:30 246 5 gusting 13 20.0
2016-Feb-11 12:15 221 2 gusting 13 19.4
2016-Feb-11 12:01 221 4 gusting 14 19.4
2016-Feb-11 11:45 239 4 gusting 17 19.4
2016-Feb-11 11:30 257 6 gusting 14 20.0
2016-Feb-11 11:15 236 5 gusting 15 18.3
2016-Feb-11 10:45 265 6 gusting 19 17.8
2016-Feb-11 10:30 293 5 gusting 17 17.2
2016-Feb-11 10:15 252 9 gusting 18 17.2
2016-Feb-11 10:01 276 6 gusting 13 16.7
2016-Feb-11 09:45 259 1 gusting 6 16.7
2016-Feb-11 09:30 254 2 gusting 8 16.7
2016-Feb-11 09:15 280 3 gusting 7 16.1
2016-Feb-11 09:01 292 2 gusting 9 16.1
2016-Feb-11 08:45 279 0 gusting 6 15.6
2016-Feb-11 08:30 291 0 gusting 6 15.6
2016-Feb-11 08:15 302 1 gusting 6 15.6
2016-Feb-11 08:01 287 2 gusting 7 15.6
2016-Feb-11 07:45 293 0 gusting 6 15.6
2016-Feb-11 07:30 274 1 gusting 9 15.6
2016-Feb-11 07:15 238 0 gusting 6 15.6
2016-Feb-11 07:01 255 2 gusting 6 15.6
2016-Feb-11 06:45 268 0 gusting 6 16.1
2016-Feb-11 06:30 274 3 gusting 11 16.1
2016-Feb-11 06:15 286 4 gusting 15 16.1
2016-Feb-11 06:01 245 3 gusting 13 16.1
2016-Feb-11 05:45 294 6 gusting 16 16.7
2016-Feb-11 05:30 266 6 gusting 15 16.7
2016-Feb-11 05:15 281 4 gusting 9 16.1
2016-Feb-11 05:01 243 3 gusting 10 16.1
2016-Feb-11 04:45 279 4 gusting 9 16.1
2016-Feb-11 04:30 247 2 gusting 7 16.1
2016-Feb-11 04:15 227 2 gusting 10 16.7
2016-Feb-11 04:01 229 2 gusting 10 16.7
2016-Feb-11 03:45 263 1 gusting 13 17.8
2016-Feb-11 03:30 248 6 gusting 16 18.3
2016-Feb-11 03:15 284 7 gusting 15 18.3
2016-Feb-11 03:01 246 6 gusting 13 18.3
2016-Feb-11 02:45 261 5 gusting 12 17.8
2016-Feb-11 02:30 285 4 gusting 9 18.3
2016-Feb-11 02:15 305 6 gusting 13 18.3
2016-Feb-11 02:01 240 4 gusting 14 18.3
2016-Feb-11 01:45 289 6 gusting 10 18.3
2016-Feb-11 01:30 325 5 gusting 13 18.3
2016-Feb-11 01:15 275 6 gusting 16 18.3
2016-Feb-11 00:45 281 5 gusting 13 17.8
2016-Feb-11 00:30 288 6 gusting 16 17.8
2016-Feb-11 00:15 301 5 gusting 11 17.8
2016-Feb-11 00:01 308 6 gusting 13 17.8
2016-Feb-10 23:45 292 6 gusting 13 17.8
2016-Feb-10 23:30 277 6 gusting 12 17.8
2016-Feb-10 23:15 302 4 gusting 9 17.2
2016-Feb-10 23:01 268 1 gusting 6 17.2
2016-Feb-10 22:45 274 6 gusting 11 17.2
2016-Feb-10 22:30 288 0 gusting 6 16.7
2016-Feb-10 22:15 300 1 gusting 5 16.7
2016-Feb-10 22:01 279 2 gusting 12 16.7
2016-Feb-10 21:45 262 2 gusting 10 16.1
2016-Feb-10 21:30 262 3 gusting 8 16.1
2016-Feb-10 21:15 238 0 gusting 5 16.7
2016-Feb-10 21:01 254 2 gusting 8 17.2
2016-Feb-10 20:45 248 16.7
2016-Feb-10 20:30 194 0 gusting 4 16.7
2016-Feb-10 20:15 284 17.2
2016-Feb-10 20:01 276 17.2
2016-Feb-10 19:45 268 0 gusting 6 17.2
2016-Feb-10 19:30 248 2 gusting 11 17.8
2016-Feb-10 19:15 246 3 gusting 15 18.3
2016-Feb-10 19:01 284 5 gusting 19 17.8
2016-Feb-10 18:45 263 6 gusting 15 17.2
2016-Feb-10 18:30 253 6 gusting 13 16.7
2016-Feb-10 18:15 270 3 gusting 12 16.7
2016-Feb-10 18:01 261 5 gusting 16 16.7
2016-Feb-10 17:45 279 5 gusting 15 16.7
2016-Feb-10 17:30 250 6 gusting 15 16.7
2016-Feb-10 17:15 246 8 gusting 16 17.2
2016-Feb-10 17:01 276 8 gusting 18 17.8
2016-Feb-10 16:45 257 10 gusting 17 18.3
2016-Feb-10 16:30 284 5 gusting 14 18.3
2016-Feb-10 16:15 260 9 gusting 16 18.3
2016-Feb-10 16:01 219 9 gusting 19 18.3
2016-Feb-10 15:45 265 8 gusting 19 18.3
2016-Feb-10 15:30 283 7 gusting 17 18.3
2016-Feb-10 15:15 246 8 gusting 21 18.3
2016-Feb-10 15:01 230 11 gusting 27 20.0
2016-Feb-10 14:45 249 12 gusting 23 20.0
2016-Feb-10 14:30 292 12 gusting 25 20.6
2016-Feb-10 14:15 265 14 gusting 26 21.1
2016-Feb-10 13:45 269 7 gusting 21 21.1
2016-Feb-10 13:30 221 12 gusting 22 21.7
2016-Feb-10 13:15 255 7 gusting 19 21.1
2016-Feb-10 13:01 242 6 gusting 19 21.1
2016-Feb-10 12:45 282 9 gusting 21 20.6
2016-Feb-10 12:30 281 8 gusting 23 20.0
2016-Feb-10 12:16 265 10 gusting 22 20.6
2016-Feb-10 12:01 267 15 gusting 28 20.0
2016-Feb-10 11:45 219 11 gusting 21 20.6
2016-Feb-10 11:30 246 9 gusting 23 21.1
2016-Feb-10 11:15 277 10 gusting 18 20.6
2016-Feb-10 11:01 280 6 gusting 16 21.1
2016-Feb-10 10:45 291 8 gusting 19 20.6
2016-Feb-10 10:30 281 5 gusting 16 20.6
2016-Feb-10 10:15 273 9 gusting 18 20.0
2016-Feb-10 10:01 280 9 gusting 17 20.0
2016-Feb-10 09:45 292 6 gusting 18 19.4
2016-Feb-10 09:30 283 12 gusting 17 18.9
2016-Feb-10 09:15 311 10 gusting 17 18.9
2016-Feb-10 09:01 301 5 gusting 11 18.3
2016-Feb-10 08:45 284 6 gusting 17 17.8
2016-Feb-10 08:30 275 3 gusting 12 17.8
2016-Feb-10 08:15 279 4 gusting 14 17.2
2016-Feb-10 08:01 328 6 gusting 13 17.2
2016-Feb-10 07:45 250 7 gusting 15 16.7
2016-Feb-10 07:30 307 6 gusting 19 16.7
2016-Feb-10 07:15 265 9 gusting 16 17.2
2016-Feb-10 07:01 259 10 gusting 19 17.2
2016-Feb-10 06:45 274 6 gusting 16 16.7
2016-Feb-10 06:30 279 9 gusting 18 17.2
2016-Feb-10 06:15 258 6 gusting 14 16.7
2016-Feb-10 06:01 287 3 gusting 8 16.7
2016-Feb-10 05:45 254 4 gusting 13 16.7
2016-Feb-10 05:30 281 7 gusting 17 16.7
2016-Feb-10 05:15 239 6 gusting 13 16.7
2016-Feb-10 05:01 277 6 gusting 15 16.7
2016-Feb-10 04:45 279 6 gusting 17 17.2
2016-Feb-10 04:30 290 5 gusting 14 17.2
2016-Feb-10 04:15 299 8 gusting 20 17.2
2016-Feb-10 04:01 328 11 gusting 18 17.2
2016-Feb-10 03:45 263 6 gusting 17 17.2
2016-Feb-10 03:30 288 3 gusting 17 17.2
2016-Feb-10 03:15 265 7 gusting 16 17.2
2016-Feb-10 03:01 240 7 gusting 13 17.2